Time;durP1;ratioP1;P1;durP2;ratioP2;P2;SDS_P1;SDS_P2;PMS_P1;PMS_P2;Temp;Humidity;BMP_temperature;BMP_pressure;BME280_temperature;BME280_humidity;BME280_pressure;Samples;Min_cycle;Max_cycle;Signal;HPM_P1;HPM_P2
2022/09/15 00:09:03;;;;;;;3.1;1.1;;;;;;;;;;;;;-75
2022/09/15 00:39:05;;;;;;;3.2;1.1;;;;;;;;;;;;;-76
2022/09/15 01:09:10;;;;;;;2.5;1;;;;;;;;;;;;;-79
2022/09/15 01:39:12;;;;;;;2.4;0.9;;;;;;;;;;;;;-76
2022/09/15 02:09:14;;;;;;;2.2;0.8;;;;;;;;;;;;;-78
2022/09/15 02:39:15;;;;;;;3;0.7;;;;;;;;;;;;;-76
2022/09/15 03:09:19;;;;;;;2.1;0.6;;;;;;;;;;;;;-76
2022/09/15 03:39:18;;;;;;;2;0.6;;;;;;;;;;;;;-77
2022/09/15 04:09:19;;;;;;;1.7;0.5;;;;;;;;;;;;;-76
2022/09/15 04:39:23;;;;;;;1.7;0.6;;;;;;;;;;;;;-76
2022/09/15 05:09:22;;;;;;;2.4;0.6;;;;;;;;;;;;;-77
2022/09/15 05:39:24;;;;;;;2.1;0.7;;;;;;;;;;;;;-78
2022/09/15 06:09:29;;;;;;;3.9;0.9;;;;;;;;;;;;;-76
2022/09/15 06:39:27;;;;;;;5.2;0.9;;;;;;;;;;;;;-76
2022/09/15 07:09:31;;;;;;;1.9;0.6;;;;;;;;;;;;;-76
2022/09/15 07:39:32;;;;;;;3.1;0.7;;;;;;;;;;;;;-78
2022/09/15 08:09:33;;;;;;;4.5;0.7;;;;;;;;;;;;;-77
2022/09/15 08:39:35;;;;;;;3;0.6;;;;;;;;;;;;;-77
2022/09/15 09:09:45;;;;;;;3.3;0.7;;;;;;;;;;;;;-75
2022/09/15 09:39:42;;;;;;;3.5;0.6;;;;;;;;;;;;;-76
2022/09/15 10:09:43;;;;;;;5.5;0.8;;;;;;;;;;;;;-77
2022/09/15 10:39:51;;;;;;;1.9;0.5;;;;;;;;;;;;;-79
2022/09/15 11:09:52;;;;;;;2.3;0.5;;;;;;;;;;;;;-78
2022/09/15 11:39:53;;;;;;;3.8;0.5;;;;;;;;;;;;;-78
2022/09/15 12:09:56;;;;;;;3.3;0.6;;;;;;;;;;;;;-76
2022/09/15 12:39:58;;;;;;;2.6;0.6;;;;;;;;;;;;;-78
2022/09/15 13:10:14;;;;;;;4.3;0.6;;;;;;;;;;;;;-77
2022/09/15 13:40:16;;;;;;;1.9;0.5;;;;;;;;;;;;;-78
2022/09/15 14:10:21;;;;;;;4.9;0.6;;;;;;;;;;;;;-77
2022/09/15 14:40:24;;;;;;;2.4;0.5;;;;;;;;;;;;;-79
2022/09/15 15:10:20;;;;;;;2.5;0.6;;;;;;;;;;;;;-77
2022/09/15 15:40:22;;;;;;;1.8;0.4;;;;;;;;;;;;;-76
2022/09/15 16:10:23;;;;;;;3.8;0.5;;;;;;;;;;;;;-78
2022/09/15 16:40:24;;;;;;;3;0.7;;;;;;;;;;;;;-76
2022/09/15 17:10:30;;;;;;;3;0.5;;;;;;;;;;;;;-78
2022/09/15 17:40:29;;;;;;;1.3;0.4;;;;;;;;;;;;;-79
2022/09/15 18:10:33;;;;;;;2.2;0.5;;;;;;;;;;;;;-80
2022/09/15 18:40:41;;;;;;;2;0.6;;;;;;;;;;;;;-80
2022/09/15 19:10:40;;;;;;;2.3;0.5;;;;;;;;;;;;;-80
2022/09/15 19:40:38;;;;;;;5.3;0.8;;;;;;;;;;;;;-81
2022/09/15 20:10:38;;;;;;;2.1;0.4;;;;;;;;;;;;;-80
2022/09/15 20:40:40;;;;;;;3;0.7;;;;;;;;;;;;;-80
2022/09/15 21:10:42;;;;;;;2.6;0.6;;;;;;;;;;;;;-78
2022/09/15 21:40:48;;;;;;;2.5;0.6;;;;;;;;;;;;;-77
2022/09/15 22:10:44;;;;;;;3.1;0.5;;;;;;;;;;;;;-78
2022/09/15 22:40:45;;;;;;;3.9;0.6;;;;;;;;;;;;;-80
2022/09/15 23:10:47;;;;;;;3.6;0.6;;;;;;;;;;;;;-78
2022/09/15 23:40:48;;;;;;;2.4;0.6;;;;;;;;;;;;;-78
